sensor_id;sensor_type;location;lat;lon;timestamp;pressure;altitude;pressure_sealevel;temperature;humidity
35551;BME280;21655;46.056;13.616;2022-09-12T00:00:26;100537.56;;;15.57;100.00
35551;BME280;21655;46.056;13.616;2022-09-12T00:02:53;100527.44;;;15.56;100.00
35551;BME280;21655;46.056;13.616;2022-09-12T00:05:19;100528.09;;;15.52;100.00
35551;BME280;21655;46.056;13.616;2022-09-12T00:07:45;100529.41;;;15.62;100.00
35551;BME280;21655;46.056;13.616;2022-09-12T00:10:10;100529.81;;;15.53;100.00
35551;BME280;21655;46.056;13.616;2022-09-12T00:12:36;100522.66;;;15.44;100.00
35551;BME280;21655;46.056;13.616;2022-09-12T00:15:01;100523.91;;;15.35;100.00
35551;BME280;21655;46.056;13.616;2022-09-12T00:17:27;100528.66;;;15.41;100.00
35551;BME280;21655;46.056;13.616;2022-09-12T00:19:52;100526.09;;;15.46;100.00
35551;BME280;21655;46.056;13.616;2022-09-12T00:22:18;100526.94;;;15.40;100.00
35551;BME280;21655;46.056;13.616;2022-09-12T00:24:43;100520.88;;;15.36;100.00
35551;BME280;21655;46.056;13.616;2022-09-12T00:27:09;100529.63;;;15.27;100.00
35551;BME280;21655;46.056;13.616;2022-09-12T00:29:34;100518.31;;;15.35;100.00
35551;BME280;21655;46.056;13.616;2022-09-12T00:32:00;100521.97;;;15.35;100.00
35551;BME280;21655;46.056;13.616;2022-09-12T00:34:25;100528.97;;;15.25;100.00
35551;BME280;21655;46.056;13.616;2022-09-12T00:36:51;100518.53;;;15.33;100.00
35551;BME280;21655;46.056;13.616;2022-09-12T00:39:17;100519.41;;;15.34;100.00
35551;BME280;21655;46.056;13.616;2022-09-12T00:41:43;100522.56;;;15.31;100.00
35551;BME280;21655;46.056;13.616;2022-09-12T00:49:11;100518.88;;;15.24;100.00
35551;BME280;21655;46.056;13.616;2022-09-12T00:51:38;100525.53;;;15.23;100.00
35551;BME280;21655;46.056;13.616;2022-09-12T00:54:11;100515.41;;;15.22;100.00
35551;BME280;21655;46.056;13.616;2022-09-12T00:56:39;100516.91;;;15.18;100.00
35551;BME280;21655;46.056;13.616;2022-09-12T00:59:12;100514.78;;;15.20;100.00
35551;BME280;21655;46.056;13.616;2022-09-12T01:01:40;100512.78;;;15.14;100.00
35551;BME280;21655;46.056;13.616;2022-09-12T01:04:08;100512.59;;;15.15;100.00
35551;BME280;21655;46.056;13.616;2022-09-12T01:06:37;100515.94;;;15.04;100.00
35551;BME280;21655;46.056;13.616;2022-09-12T01:09:04;100516.81;;;15.05;100.00
35551;BME280;21655;46.056;13.616;2022-09-12T01:11:35;100510.16;;;15.06;100.00
35551;BME280;21655;46.056;13.616;2022-09-12T01:14:01;100513.63;;;15.08;100.00
35551;BME280;21655;46.056;13.616;2022-09-12T01:16:26;100516.34;;;15.02;100.00
35551;BME280;21655;46.056;13.616;2022-09-12T01:27:22;100501.69;;;14.93;100.00
35551;BME280;21655;46.056;13.616;2022-09-12T01:35:54;100499.72;;;14.87;100.00
35551;BME280;21655;46.056;13.616;2022-09-12T01:41:07;100494.28;;;14.79;100.00
35551;BME280;21655;46.056;13.616;2022-09-12T01:43:46;100490.00;;;14.77;100.00
35551;BME280;21655;46.056;13.616;2022-09-12T01:46:18;100487.22;;;14.77;100.00
35551;BME280;21655;46.056;13.616;2022-09-12T01:48:54;100499.03;;;14.79;100.00
35551;BME280;21655;46.056;13.616;2022-09-12T01:51:29;100493.44;;;14.79;100.00
35551;BME280;21655;46.056;13.616;2022-09-12T01:54:01;100489.59;;;14.80;100.00
35551;BME280;21655;46.056;13.616;2022-09-12T01:56:32;100487.41;;;14.75;100.00
35551;BME280;21655;46.056;13.616;2022-09-12T02:01:39;100489.91;;;14.64;100.00
35551;BME280;21655;46.056;13.616;2022-09-12T02:04:13;100492.09;;;14.68;100.00
35551;BME280;21655;46.056;13.616;2022-09-12T02:07:09;100491.81;;;14.63;100.00
35551;BME280;21655;46.056;13.616;2022-09-12T02:10:03;100489.84;;;14.57;100.00
35551;BME280;21655;46.056;13.616;2022-09-12T02:12:36;100489.03;;;14.63;100.00
35551;BME280;21655;46.056;13.616;2022-09-12T02:15:06;100483.59;;;14.55;100.00
35551;BME280;21655;46.056;13.616;2022-09-12T02:17:37;100482.91;;;14.47;100.00
35551;BME280;21655;46.056;13.616;2022-09-12T02:22:41;100487.06;;;14.57;100.00
35551;BME280;21655;46.056;13.616;2022-09-12T02:25:09;100484.22;;;14.51;100.00
35551;BME280;21655;46.056;13.616;2022-09-12T02:27:40;100488.84;;;14.65;100.00
35551;BME280;21655;46.056;13.616;2022-09-12T02:30:07;100482.22;;;14.72;100.00
35551;BME280;21655;46.056;13.616;2022-09-12T02:35:26;100485.13;;;14.85;100.00
35551;BME280;21655;46.056;13.616;2022-09-12T02:38:06;100474.59;;;14.87;100.00
35551;BME280;21655;46.056;13.616;2022-09-12T02:40:33;100484.00;;;14.80;100.00
35551;BME280;21655;46.056;13.616;2022-09-12T02:43:01;100484.38;;;14.70;100.00
35551;BME280;21655;46.056;13.616;2022-09-12T02:45:27;100478.19;;;14.75;100.00
35551;BME280;21655;46.056;13.616;2022-09-12T02:50:57;100466.75;;;14.70;100.00
35551;BME280;21655;46.056;13.616;2022-09-12T02:53:24;100475.28;;;14.62;100.00
35551;BME280;21655;46.056;13.616;2022-09-12T02:55:50;100478.94;;;14.62;100.00
35551;BME280;21655;46.056;13.616;2022-09-12T02:58:19;100470.31;;;14.57;100.00
35551;BME280;21655;46.056;13.616;2022-09-12T03:03:36;100466.22;;;14.53;100.00
35551;BME280;21655;46.056;13.616;2022-09-12T03:14:30;100474.63;;;14.60;100.00
35551;BME280;21655;46.056;13.616;2022-09-12T03:16:57;100476.09;;;14.56;100.00
35551;BME280;21655;46.056;13.616;2022-09-12T03:22:19;100483.91;;;14.39;100.00
35551;BME280;21655;46.056;13.616;2022-09-12T03:27:28;100489.06;;;14.42;100.00
35551;BME280;21655;46.056;13.616;2022-09-12T03:29:54;100488.41;;;14.40;100.00
35551;BME280;21655;46.056;13.616;2022-09-12T03:32:38;100489.63;;;14.31;100.00
35551;BME280;21655;46.056;13.616;2022-09-12T03:35:05;100486.63;;;14.33;100.00
35551;BME280;21655;46.056;13.616;2022-09-12T03:37:30;100480.66;;;14.36;100.00
35551;BME280;21655;46.056;13.616;2022-09-12T03:39:55;100485.81;;;14.39;100.00
35551;BME280;21655;46.056;13.616;2022-09-12T03:42:21;100486.09;;;14.44;100.00
35551;BME280;21655;46.056;13.616;2022-09-12T03:44:46;100485.44;;;14.42;100.00
35551;BME280;21655;46.056;13.616;2022-09-12T03:47:12;100482.38;;;14.37;100.00
35551;BME280;21655;46.056;13.616;2022-09-12T03:49:37;100482.53;;;14.29;100.00
35551;BME280;21655;46.056;13.616;2022-09-12T03:52:03;100478.19;;;14.26;100.00
35551;BME280;21655;46.056;13.616;2022-09-12T03:54:29;100479.88;;;14.21;100.00
35551;BME280;21655;46.056;13.616;2022-09-12T03:56:54;100489.19;;;14.13;100.00
35551;BME280;21655;46.056;13.616;2022-09-12T03:59:19;100484.78;;;14.19;100.00
35551;BME280;21655;46.056;13.616;2022-09-12T04:01:45;100481.91;;;14.12;100.00
35551;BME280;21655;46.056;13.616;2022-09-12T04:04:10;100484.50;;;14.14;100.00
35551;BME280;21655;46.056;13.616;2022-09-12T04:06:36;100485.75;;;14.11;100.00
35551;BME280;21655;46.056;13.616;2022-09-12T04:09:01;100484.84;;;14.04;100.00
35551;BME280;21655;46.056;13.616;2022-09-12T04:11:27;100489.88;;;13.94;100.00
35551;BME280;21655;46.056;13.616;2022-09-12T04:13:53;100486.69;;;13.97;100.00
35551;BME280;21655;46.056;13.616;2022-09-12T04:16:18;100497.66;;;13.99;100.00
35551;BME280;21655;46.056;13.616;2022-09-12T04:18:45;100496.19;;;14.03;100.00
35551;BME280;21655;46.056;13.616;2022-09-12T04:21:13;100498.38;;;14.07;100.00
35551;BME280;21655;46.056;13.616;2022-09-12T04:23:40;100504.63;;;14.09;100.00
35551;BME280;21655;46.056;13.616;2022-09-12T04:26:08;100502.31;;;14.13;100.00
35551;BME280;21655;46.056;13.616;2022-09-12T04:28:35;100506.59;;;14.15;100.00
35551;BME280;21655;46.056;13.616;2022-09-12T04:31:05;100506.50;;;14.23;100.00
35551;BME280;21655;46.056;13.616;2022-09-12T04:33:32;100495.88;;;14.33;100.00
35551;BME280;21655;46.056;13.616;2022-09-12T04:36:09;100495.00;;;14.33;100.00
35551;BME280;21655;46.056;13.616;2022-09-12T04:38:35;100498.84;;;14.32;100.00
35551;BME280;21655;46.056;13.616;2022-09-12T04:41:12;100508.06;;;14.32;100.00
35551;BME280;21655;46.056;13.616;2022-09-12T04:43:38;100500.19;;;14.36;100.00
35551;BME280;21655;46.056;13.616;2022-09-12T04:46:08;100497.03;;;14.45;100.00
35551;BME280;21655;46.056;13.616;2022-09-12T04:48:35;100511.66;;;14.47;100.00
35551;BME280;21655;46.056;13.616;2022-09-12T04:51:12;100510.44;;;14.56;100.00
35551;BME280;21655;46.056;13.616;2022-09-12T04:53:38;100507.44;;;14.58;100.00
35551;BME280;21655;46.056;13.616;2022-09-12T04:56:05;100501.59;;;14.53;100.00
35551;BME280;21655;46.056;13.616;2022-09-12T04:58:31;100505.94;;;14.55;100.00
35551;BME280;21655;46.056;13.616;2022-09-12T05:01:08;100512.16;;;14.57;100.00
35551;BME280;21655;46.056;13.616;2022-09-12T05:03:35;100516.56;;;14.73;100.00
35551;BME280;21655;46.056;13.616;2022-09-12T05:06:05;100515.56;;;14.80;100.00
35551;BME280;21655;46.056;13.616;2022-09-12T05:08:32;100517.34;;;14.88;100.00
35551;BME280;21655;46.056;13.616;2022-09-12T05:11:04;100511.44;;;15.03;100.00
35551;BME280;21655;46.056;13.616;2022-09-12T05:13:31;100512.53;;;15.09;100.00
35551;BME280;21655;46.056;13.616;2022-09-12T05:15:59;100520.72;;;15.10;100.00
35551;BME280;21655;46.056;13.616;2022-09-12T05:18:25;100514.34;;;15.23;100.00
35551;BME280;21655;46.056;13.616;2022-09-12T05:20:51;100517.59;;;15.26;100.00
35551;BME280;21655;46.056;13.616;2022-09-12T05:23:17;100520.47;;;15.33;100.00
35551;BME280;21655;46.056;13.616;2022-09-12T05:25:53;100520.69;;;15.38;100.00
35551;BME280;21655;46.056;13.616;2022-09-12T05:28:20;100524.78;;;15.42;100.00
35551;BME280;21655;46.056;13.616;2022-09-12T05:30:47;100524.19;;;15.46;100.00
35551;BME280;21655;46.056;13.616;2022-09-12T05:33:13;100521.66;;;15.58;100.00
35551;BME280;21655;46.056;13.616;2022-09-12T05:35:39;100519.03;;;15.56;100.00
35551;BME280;21655;46.056;13.616;2022-09-12T05:38:06;100522.78;;;15.70;100.00
35551;BME280;21655;46.056;13.616;2022-09-12T05:40:32;100533.56;;;15.79;100.00
35551;BME280;21655;46.056;13.616;2022-09-12T05:42:58;100527.13;;;15.85;100.00
35551;BME280;21655;46.056;13.616;2022-09-12T05:45:23;100537.00;;;15.81;100.00
35551;BME280;21655;46.056;13.616;2022-09-12T05:47:49;100527.31;;;15.77;100.00
35551;BME280;21655;46.056;13.616;2022-09-12T05:50:14;100523.06;;;15.94;100.00
35551;BME280;21655;46.056;13.616;2022-09-12T05:52:40;100520.94;;;16.03;100.00
35551;BME280;21655;46.056;13.616;2022-09-12T05:55:06;100522.91;;;16.15;100.00
35551;BME280;21655;46.056;13.616;2022-09-12T05:57:32;100519.91;;;16.17;100.00
35551;BME280;21655;46.056;13.616;2022-09-12T05:59:57;100521.84;;;16.29;100.00
35551;BME280;21655;46.056;13.616;2022-09-12T06:02:24;100527.50;;;16.42;100.00
35551;BME280;21655;46.056;13.616;2022-09-12T06:04:49;100525.13;;;16.46;100.00
35551;BME280;21655;46.056;13.616;2022-09-12T06:07:14;100519.34;;;16.67;100.00
35551;BME280;21655;46.056;13.616;2022-09-12T06:09:40;100522.56;;;16.77;100.00
35551;BME280;21655;46.056;13.616;2022-09-12T06:12:05;100528.22;;;17.59;100.00
35551;BME280;21655;46.056;13.616;2022-09-12T06:14:33;100520.53;;;17.48;100.00
35551;BME280;21655;46.056;13.616;2022-09-12T06:16:58;100521.81;;;17.26;100.00
35551;BME280;21655;46.056;13.616;2022-09-12T06:19:24;100508.72;;;17.14;100.00
35551;BME280;21655;46.056;13.616;2022-09-12T06:21:52;100516.22;;;17.26;100.00
35551;BME280;21655;46.056;13.616;2022-09-12T06:24:18;100513.41;;;17.26;100.00
35551;BME280;21655;46.056;13.616;2022-09-12T06:26:44;100503.41;;;17.63;100.00
35551;BME280;21655;46.056;13.616;2022-09-12T06:29:11;100510.91;;;17.75;100.00
35551;BME280;21655;46.056;13.616;2022-09-12T06:31:39;100505.72;;;18.16;100.00
35551;BME280;21655;46.056;13.616;2022-09-12T06:34:07;100505.28;;;21.92;76.50
35551;BME280;21655;46.056;13.616;2022-09-12T06:36:36;100489.72;;;23.82;62.50
35551;BME280;21655;46.056;13.616;2022-09-12T06:39:08;100487.97;;;26.37;52.08
35551;BME280;21655;46.056;13.616;2022-09-12T06:41:35;100488.69;;;27.24;48.34
35551;BME280;21655;46.056;13.616;2022-09-12T06:44:01;100479.16;;;26.34;48.57
35551;BME280;21655;46.056;13.616;2022-09-12T06:46:27;100490.91;;;21.42;65.75
35551;BME280;21655;46.056;13.616;2022-09-12T06:48:56;100468.94;;;24.41;58.35
35551;BME280;21655;46.056;13.616;2022-09-12T06:51:23;100473.00;;;27.02;48.19
35551;BME280;21655;46.056;13.616;2022-09-12T06:53:48;100503.91;;;29.76;42.46
35551;BME280;21655;46.056;13.616;2022-09-12T06:56:17;100508.59;;;26.89;47.05
35551;BME280;21655;46.056;13.616;2022-09-12T06:58:47;100503.31;;;25.02;50.59
35551;BME280;21655;46.056;13.616;2022-09-12T07:03:40;100495.72;;;22.21;61.44
35551;BME280;21655;46.056;13.616;2022-09-12T07:06:10;100501.81;;;20.93;70.03
35551;BME280;21655;46.056;13.616;2022-09-12T07:08:36;100491.78;;;20.15;74.82
35551;BME280;21655;46.056;13.616;2022-09-12T07:11:21;100495.13;;;19.76;80.48
35551;BME280;21655;46.056;13.616;2022-09-12T07:13:50;100498.31;;;20.68;76.87
35551;BME280;21655;46.056;13.616;2022-09-12T07:16:16;100504.63;;;19.93;75.82
35551;BME280;21655;46.056;13.616;2022-09-12T07:18:42;100499.97;;;19.09;82.25
35551;BME280;21655;46.056;13.616;2022-09-12T07:21:13;100505.72;;;18.78;85.09
35551;BME280;21655;46.056;13.616;2022-09-12T07:23:39;100509.94;;;18.63;88.79
35551;BME280;21655;46.056;13.616;2022-09-12T07:26:07;100495.66;;;18.40;89.44
35551;BME280;21655;46.056;13.616;2022-09-12T07:28:34;100508.03;;;18.32;92.39
35551;BME280;21655;46.056;13.616;2022-09-12T07:31:08;100500.91;;;18.30;94.10
35551;BME280;21655;46.056;13.616;2022-09-12T07:33:34;100501.94;;;18.35;93.50
35551;BME280;21655;46.056;13.616;2022-09-12T07:36:03;100499.25;;;18.47;94.40
35551;BME280;21655;46.056;13.616;2022-09-12T07:38:29;100512.03;;;18.43;94.88
35551;BME280;21655;46.056;13.616;2022-09-12T07:40:55;100510.06;;;18.43;95.45
35551;BME280;21655;46.056;13.616;2022-09-12T07:43:21;100511.69;;;18.57;95.21
35551;BME280;21655;46.056;13.616;2022-09-12T07:45:46;100513.94;;;18.73;95.01
35551;BME280;21655;46.056;13.616;2022-09-12T07:48:12;100510.81;;;18.88;94.32
35551;BME280;21655;46.056;13.616;2022-09-12T07:50:38;100511.03;;;18.86;92.50
35551;BME280;21655;46.056;13.616;2022-09-12T07:53:03;100504.78;;;18.84;90.13
35551;BME280;21655;46.056;13.616;2022-09-12T07:55:30;100512.91;;;18.68;90.34
35551;BME280;21655;46.056;13.616;2022-09-12T07:57:55;100505.88;;;18.83;90.75
35551;BME280;21655;46.056;13.616;2022-09-12T08:00:21;100509.31;;;18.85;90.63
35551;BME280;21655;46.056;13.616;2022-09-12T08:02:51;100509.19;;;18.98;90.62
35551;BME280;21655;46.056;13.616;2022-09-12T08:05:18;100521.22;;;19.05;89.27
35551;BME280;21655;46.056;13.616;2022-09-12T08:07:45;100520.28;;;19.35;86.93
35551;BME280;21655;46.056;13.616;2022-09-12T08:10:10;100508.50;;;19.63;83.71
35551;BME280;21655;46.056;13.616;2022-09-12T08:12:36;100510.91;;;19.59;84.36
35551;BME280;21655;46.056;13.616;2022-09-12T08:15:01;100514.13;;;19.81;83.46
35551;BME280;21655;46.056;13.616;2022-09-12T08:17:27;100512.72;;;21.58;72.43
35551;BME280;21655;46.056;13.616;2022-09-12T08:19:53;100510.94;;;21.92;70.08
35551;BME280;21655;46.056;13.616;2022-09-12T08:22:19;100510.38;;;21.55;69.69
35551;BME280;21655;46.056;13.616;2022-09-12T08:24:46;100504.31;;;22.70;64.50
35551;BME280;21655;46.056;13.616;2022-09-12T08:27:12;100497.53;;;24.92;56.92
35551;BME280;21655;46.056;13.616;2022-09-12T08:29:37;100478.75;;;27.26;49.33
35551;BME280;21655;46.056;13.616;2022-09-12T08:32:02;100488.56;;;29.34;43.23
35551;BME280;21655;46.056;13.616;2022-09-12T08:34:28;100488.09;;;28.89;43.07
35551;BME280;21655;46.056;13.616;2022-09-12T08:36:53;100487.22;;;30.30;39.96
35551;BME280;21655;46.056;13.616;2022-09-12T08:39:19;100480.84;;;32.35;36.34
35551;BME280;21655;46.056;13.616;2022-09-12T08:41:46;100480.31;;;32.33;36.41
35551;BME280;21655;46.056;13.616;2022-09-12T08:50:16;100480.94;;;28.86;41.86
35551;BME280;21655;46.056;13.616;2022-09-12T08:53:09;100486.09;;;27.62;42.58
35551;BME280;21655;46.056;13.616;2022-09-12T08:55:45;100477.59;;;30.45;39.60
35551;BME280;21655;46.056;13.616;2022-09-12T08:58:20;100478.78;;;31.18;36.72
35551;BME280;21655;46.056;13.616;2022-09-12T09:09:04;100467.47;;;33.15;34.26
35551;BME280;21655;46.056;13.616;2022-09-12T09:12:05;100469.03;;;34.81;32.06
35551;BME280;21655;46.056;13.616;2022-09-12T09:22:43;100462.06;;;36.50;27.02
35551;BME280;21655;46.056;13.616;2022-09-12T09:25:40;100459.31;;;34.60;29.59
35551;BME280;21655;46.056;13.616;2022-09-12T09:28:33;100458.25;;;34.48;30.41
35551;BME280;21655;46.056;13.616;2022-09-12T09:31:02;100451.75;;;35.15;29.59
35551;BME280;21655;46.056;13.616;2022-09-12T09:33:33;100452.59;;;35.24;30.03
35551;BME280;21655;46.056;13.616;2022-09-12T09:38:58;100447.16;;;35.31;29.14
35551;BME280;21655;46.056;13.616;2022-09-12T09:43:50;100444.22;;;35.73;28.51
35551;BME280;21655;46.056;13.616;2022-09-12T09:46:15;100440.72;;;35.26;29.51
35551;BME280;21655;46.056;13.616;2022-09-12T09:48:44;100429.50;;;35.07;29.47
35551;BME280;21655;46.056;13.616;2022-09-12T09:51:13;100423.56;;;34.14;31.44
35551;BME280;21655;46.056;13.616;2022-09-12T09:58:44;100410.41;;;35.65;28.66
35551;BME280;21655;46.056;13.616;2022-09-12T10:01:15;100410.41;;;34.30;30.10
35551;BME280;21655;46.056;13.616;2022-09-12T10:03:54;100406.66;;;33.21;32.19
35551;BME280;21655;46.056;13.616;2022-09-12T10:06:21;100400.28;;;34.58;31.43
35551;BME280;21655;46.056;13.616;2022-09-12T10:08:48;100388.78;;;35.09;30.20
35551;BME280;21655;46.056;13.616;2022-09-12T10:16:27;100379.47;;;35.20;29.63
35551;BME280;21655;46.056;13.616;2022-09-12T10:18:55;100384.13;;;36.54;27.65
35551;BME280;21655;46.056;13.616;2022-09-12T10:21:38;100379.16;;;37.24;26.08
35551;BME280;21655;46.056;13.616;2022-09-12T10:24:25;100376.69;;;37.14;28.00
35551;BME280;21655;46.056;13.616;2022-09-12T10:26:55;100380.50;;;37.39;26.84
35551;BME280;21655;46.056;13.616;2022-09-12T10:29:33;100371.34;;;36.14;27.49
35551;BME280;21655;46.056;13.616;2022-09-12T10:32:06;100370.06;;;36.73;25.69
35551;BME280;21655;46.056;13.616;2022-09-12T10:34:43;100371.72;;;37.79;24.47
35551;BME280;21655;46.056;13.616;2022-09-12T10:37:17;100360.56;;;37.25;25.16
35551;BME280;21655;46.056;13.616;2022-09-12T10:39:51;100361.78;;;35.84;26.66
35551;BME280;21655;46.056;13.616;2022-09-12T10:47:58;100349.31;;;31.96;31.37
35551;BME280;21655;46.056;13.616;2022-09-12T10:53:22;100348.59;;;32.18;33.48
35551;BME280;21655;46.056;13.616;2022-09-12T10:55:57;100345.00;;;32.34;31.59
35551;BME280;21655;46.056;13.616;2022-09-12T10:58:29;100350.16;;;32.24;32.10
35551;BME280;21655;46.056;13.616;2022-09-12T11:20:52;100344.19;;;34.89;28.31
35551;BME280;21655;46.056;13.616;2022-09-12T11:23:39;100345.34;;;33.42;29.21
35551;BME280;21655;46.056;13.616;2022-09-12T11:26:15;100344.84;;;30.91;32.69
35551;BME280;21655;46.056;13.616;2022-09-12T11:34:01;100336.75;;;30.80;33.79
35551;BME280;21655;46.056;13.616;2022-09-12T11:39:23;100337.25;;;32.35;32.06
35551;BME280;21655;46.056;13.616;2022-09-12T11:41:57;100333.59;;;32.43;30.69
35551;BME280;21655;46.056;13.616;2022-09-12T11:44:35;100332.69;;;32.56;30.62
35551;BME280;21655;46.056;13.616;2022-09-12T11:47:05;100333.59;;;32.07;31.82
35551;BME280;21655;46.056;13.616;2022-09-12T11:49:36;100329.25;;;31.56;32.55
35551;BME280;21655;46.056;13.616;2022-09-12T11:52:14;100320.94;;;31.54;32.57
35551;BME280;21655;46.056;13.616;2022-09-12T11:54:44;100328.03;;;32.24;32.93
35551;BME280;21655;46.056;13.616;2022-09-12T12:08:21;100316.72;;;32.63;31.72
35551;BME280;21655;46.056;13.616;2022-09-12T12:11:01;100315.94;;;33.46;30.78
35551;BME280;21655;46.056;13.616;2022-09-12T12:13:51;100311.88;;;33.85;29.85
35551;BME280;21655;46.056;13.616;2022-09-12T12:16:28;100309.28;;;32.84;30.75
35551;BME280;21655;46.056;13.616;2022-09-12T12:19:18;100304.44;;;32.49;31.15
35551;BME280;21655;46.056;13.616;2022-09-12T12:21:48;100308.28;;;32.09;33.97
35551;BME280;21655;46.056;13.616;2022-09-12T12:24:23;100302.44;;;32.72;32.22
35551;BME280;21655;46.056;13.616;2022-09-12T12:34:41;100288.50;;;32.43;32.11
35551;BME280;21655;46.056;13.616;2022-09-12T12:47:45;100264.78;;;32.16;31.85
35551;BME280;21655;46.056;13.616;2022-09-12T12:53:31;100266.97;;;30.07;35.54
35551;BME280;21655;46.056;13.616;2022-09-12T12:55:46;100263.44;;;29.91;36.40
35551;BME280;21655;46.056;13.616;2022-09-12T13:01:19;100253.44;;;29.89;35.50
35551;BME280;21655;46.056;13.616;2022-09-12T13:03:59;100245.19;;;29.04;38.48
35551;BME280;21655;46.056;13.616;2022-09-12T13:09:04;100253.56;;;28.67;37.48
35551;BME280;21655;46.056;13.616;2022-09-12T13:11:38;100249.66;;;28.58;39.68
35551;BME280;21655;46.056;13.616;2022-09-12T13:14:06;100248.44;;;28.35;37.76
35551;BME280;21655;46.056;13.616;2022-09-12T13:17:03;100253.22;;;28.06;38.78
35551;BME280;21655;46.056;13.616;2022-09-12T13:19:33;100242.31;;;27.80;38.13
35551;BME280;21655;46.056;13.616;2022-09-12T13:24:26;100246.50;;;27.92;39.45
35551;BME280;21655;46.056;13.616;2022-09-12T13:26:53;100250.47;;;27.91;38.39
35551;BME280;21655;46.056;13.616;2022-09-12T13:29:21;100245.03;;;27.95;38.21
35551;BME280;21655;46.056;13.616;2022-09-12T13:31:57;100239.59;;;27.98;38.35
35551;BME280;21655;46.056;13.616;2022-09-12T13:34:27;100225.47;;;28.17;40.46
35551;BME280;21655;46.056;13.616;2022-09-12T13:39:48;100226.78;;;28.34;40.34
35551;BME280;21655;46.056;13.616;2022-09-12T13:42:47;100223.84;;;28.44;39.68
35551;BME280;21655;46.056;13.616;2022-09-12T13:45:24;100221.78;;;28.16;40.77
35551;BME280;21655;46.056;13.616;2022-09-12T13:47:56;100219.25;;;27.76;41.07
35551;BME280;21655;46.056;13.616;2022-09-12T13:50:27;100218.38;;;27.76;41.69
35551;BME280;21655;46.056;13.616;2022-09-12T13:53:05;100211.31;;;27.63;41.80
35551;BME280;21655;46.056;13.616;2022-09-12T13:55:41;100215.28;;;27.09;42.61
35551;BME280;21655;46.056;13.616;2022-09-12T14:00:45;100204.22;;;27.03;44.12
35551;BME280;21655;46.056;13.616;2022-09-12T14:06:08;100200.66;;;26.72;46.17
35551;BME280;21655;46.056;13.616;2022-09-12T14:08:38;100201.06;;;27.09;44.00
35551;BME280;21655;46.056;13.616;2022-09-12T14:11:18;100200.28;;;27.52;43.78
35551;BME280;21655;46.056;13.616;2022-09-12T14:13:45;100189.00;;;27.75;43.72
35551;BME280;21655;46.056;13.616;2022-09-12T14:16:10;100198.53;;;27.99;43.43
35551;BME280;21655;46.056;13.616;2022-09-12T14:18:37;100191.13;;;27.98;42.37
35551;BME280;21655;46.056;13.616;2022-09-12T14:21:19;100198.44;;;27.76;42.38
35551;BME280;21655;46.056;13.616;2022-09-12T14:23:47;100189.34;;;27.69;43.49
35551;BME280;21655;46.056;13.616;2022-09-12T14:26:14;100190.00;;;27.51;44.19
35551;BME280;21655;46.056;13.616;2022-09-12T14:28:43;100185.81;;;27.38;44.49
35551;BME280;21655;46.056;13.616;2022-09-12T14:34:07;100184.16;;;26.69;45.31
35551;BME280;21655;46.056;13.616;2022-09-12T14:39:33;100178.88;;;27.06;44.76
35551;BME280;21655;46.056;13.616;2022-09-12T14:42:17;100178.56;;;27.17;45.40
35551;BME280;21655;46.056;13.616;2022-09-12T14:45:03;100164.78;;;27.34;44.85
35551;BME280;21655;46.056;13.616;2022-09-12T14:47:40;100174.06;;;27.50;44.66
35551;BME280;21655;46.056;13.616;2022-09-12T14:50:22;100174.97;;;27.45;46.11
35551;BME280;21655;46.056;13.616;2022-09-12T14:55:57;100162.84;;;27.25;45.93
35551;BME280;21655;46.056;13.616;2022-09-12T14:58:25;100161.78;;;27.11;46.03
35551;BME280;21655;46.056;13.616;2022-09-12T15:05:59;100160.75;;;27.40;46.43
35551;BME280;21655;46.056;13.616;2022-09-12T15:08:27;100169.13;;;27.22;46.36
35551;BME280;21655;46.056;13.616;2022-09-12T15:10:53;100161.19;;;27.14;45.69
35551;BME280;21655;46.056;13.616;2022-09-12T15:13:24;100159.72;;;27.26;45.77
35551;BME280;21655;46.056;13.616;2022-09-12T15:15:57;100169.13;;;27.17;44.77
35551;BME280;21655;46.056;13.616;2022-09-12T15:18:26;100169.13;;;27.17;44.66
35551;BME280;21655;46.056;13.616;2022-09-12T15:20:55;100165.41;;;27.26;45.65
35551;BME280;21655;46.056;13.616;2022-09-12T15:25:50;100168.22;;;27.31;45.51
35551;BME280;21655;46.056;13.616;2022-09-12T15:28:18;100173.41;;;27.19;46.59
35551;BME280;21655;46.056;13.616;2022-09-12T15:30:45;100167.44;;;27.16;46.57
35551;BME280;21655;46.056;13.616;2022-09-12T15:33:11;100166.28;;;27.22;46.83
35551;BME280;21655;46.056;13.616;2022-09-12T15:35:37;100170.31;;;27.11;51.02
35551;BME280;21655;46.056;13.616;2022-09-12T15:38:03;100171.00;;;26.88;51.38
35551;BME280;21655;46.056;13.616;2022-09-12T15:40:28;100174.31;;;27.05;50.01
35551;BME280;21655;46.056;13.616;2022-09-12T15:42:54;100168.03;;;27.08;53.36
35551;BME280;21655;46.056;13.616;2022-09-12T15:45:26;100173.72;;;27.13;55.01
35551;BME280;21655;46.056;13.616;2022-09-12T15:47:52;100171.56;;;26.80;57.27
35551;BME280;21655;46.056;13.616;2022-09-12T15:50:18;100177.91;;;26.47;57.53
35551;BME280;21655;46.056;13.616;2022-09-12T15:52:43;100170.28;;;26.08;57.19
35551;BME280;21655;46.056;13.616;2022-09-12T15:55:24;100174.25;;;25.77;59.51
35551;BME280;21655;46.056;13.616;2022-09-12T15:57:50;100173.13;;;25.63;61.62
35551;BME280;21655;46.056;13.616;2022-09-12T16:00:17;100178.22;;;25.61;58.94